sensor_id;sensor_type;location;lat;lon;timestamp;temperature;humidity
2465;DHT22;1244;54.326;10.074;2023-06-05T00:02:07;11.00;99.90
2465;DHT22;1244;54.326;10.074;2023-06-05T00:04:33;11.10;99.90
2465;DHT22;1244;54.326;10.074;2023-06-05T00:07:01;11.00;99.90
2465;DHT22;1244;54.326;10.074;2023-06-05T00:09:27;11.00;99.90
2465;DHT22;1244;54.326;10.074;2023-06-05T00:11:52;11.00;99.90
2465;DHT22;1244;54.326;10.074;2023-06-05T00:14:18;11.00;99.90
2465;DHT22;1244;54.326;10.074;2023-06-05T00:16:44;10.90;99.90
2465;DHT22;1244;54.326;10.074;2023-06-05T00:19:09;10.90;99.90
2465;DHT22;1244;54.326;10.074;2023-06-05T00:21:35;10.80;99.90
2465;DHT22;1244;54.326;10.074;2023-06-05T00:24:01;10.70;99.90
2465;DHT22;1244;54.326;10.074;2023-06-05T00:26:27;10.70;99.90
2465;DHT22;1244;54.326;10.074;2023-06-05T00:28:52;10.70;99.90
2465;DHT22;1244;54.326;10.074;2023-06-05T00:31:18;10.70;99.90
2465;DHT22;1244;54.326;10.074;2023-06-05T00:33:44;10.80;99.90
2465;DHT22;1244;54.326;10.074;2023-06-05T00:36:10;10.70;99.90
2465;DHT22;1244;54.326;10.074;2023-06-05T00:38:36;10.70;99.90
2465;DHT22;1244;54.326;10.074;2023-06-05T00:41:02;10.80;99.90
2465;DHT22;1244;54.326;10.074;2023-06-05T00:43:27;10.80;99.90
2465;DHT22;1244;54.326;10.074;2023-06-05T00:45:58;10.80;99.90
2465;DHT22;1244;54.326;10.074;2023-06-05T00:48:25;10.80;99.90
2465;DHT22;1244;54.326;10.074;2023-06-05T00:50:50;10.70;99.90
2465;DHT22;1244;54.326;10.074;2023-06-05T00:53:16;10.70;99.90
2465;DHT22;1244;54.326;10.074;2023-06-05T00:55:42;10.70;99.90
2465;DHT22;1244;54.326;10.074;2023-06-05T00:58:08;10.70;99.90
2465;DHT22;1244;54.326;10.074;2023-06-05T01:00:33;10.70;99.90
2465;DHT22;1244;54.326;10.074;2023-06-05T01:02:59;10.60;99.90
2465;DHT22;1244;54.326;10.074;2023-06-05T01:05:25;10.50;99.90
2465;DHT22;1244;54.326;10.074;2023-06-05T01:07:51;10.50;99.90
2465;DHT22;1244;54.326;10.074;2023-06-05T01:10:17;10.50;99.90
2465;DHT22;1244;54.326;10.074;2023-06-05T01:13:03;10.50;99.90
2465;DHT22;1244;54.326;10.074;2023-06-05T01:15:32;10.50;99.90
2465;DHT22;1244;54.326;10.074;2023-06-05T01:17:59;10.50;99.90
2465;DHT22;1244;54.326;10.074;2023-06-05T01:20:33;10.40;99.90
2465;DHT22;1244;54.326;10.074;2023-06-05T01:22:59;10.40;99.90
2465;DHT22;1244;54.326;10.074;2023-06-05T01:25:24;10.30;99.90
2465;DHT22;1244;54.326;10.074;2023-06-05T01:28:17;10.30;99.90
2465;DHT22;1244;54.326;10.074;2023-06-05T01:30:49;10.30;99.90
2465;DHT22;1244;54.326;10.074;2023-06-05T01:33:24;10.30;99.90
2465;DHT22;1244;54.326;10.074;2023-06-05T01:35:52;10.30;99.90
2465;DHT22;1244;54.326;10.074;2023-06-05T01:38:19;10.30;99.90
2465;DHT22;1244;54.326;10.074;2023-06-05T01:40:47;10.20;99.90
2465;DHT22;1244;54.326;10.074;2023-06-05T01:43:13;10.10;99.90
2465;DHT22;1244;54.326;10.074;2023-06-05T01:45:39;10.10;99.90
2465;DHT22;1244;54.326;10.074;2023-06-05T01:48:07;10.10;99.90
2465;DHT22;1244;54.326;10.074;2023-06-05T01:50:34;10.10;99.90
2465;DHT22;1244;54.326;10.074;2023-06-05T01:53:01;10.00;99.90
2465;DHT22;1244;54.326;10.074;2023-06-05T01:55:27;10.10;99.90
2465;DHT22;1244;54.326;10.074;2023-06-05T01:57:53;10.00;99.90
2465;DHT22;1244;54.326;10.074;2023-06-05T02:00:19;10.00;99.90
2465;DHT22;1244;54.326;10.074;2023-06-05T02:02:46;9.90;99.90
2465;DHT22;1244;54.326;10.074;2023-06-05T02:05:14;9.90;99.90
2465;DHT22;1244;54.326;10.074;2023-06-05T02:07:43;9.90;99.90
2465;DHT22;1244;54.326;10.074;2023-06-05T02:10:09;9.90;99.90
2465;DHT22;1244;54.326;10.074;2023-06-05T02:12:35;9.80;99.90
2465;DHT22;1244;54.326;10.074;2023-06-05T02:15:03;9.80;99.90
2465;DHT22;1244;54.326;10.074;2023-06-05T02:17:29;9.80;99.90
2465;DHT22;1244;54.326;10.074;2023-06-05T02:19:55;9.70;99.90
2465;DHT22;1244;54.326;10.074;2023-06-05T02:22:20;9.70;99.90
2465;DHT22;1244;54.326;10.074;2023-06-05T02:24:49;9.70;99.90
2465;DHT22;1244;54.326;10.074;2023-06-05T02:27:15;9.70;99.90
2465;DHT22;1244;54.326;10.074;2023-06-05T02:29:41;9.70;99.90
2465;DHT22;1244;54.326;10.074;2023-06-05T02:32:07;9.70;99.90
2465;DHT22;1244;54.326;10.074;2023-06-05T02:34:33;9.60;99.90
2465;DHT22;1244;54.326;10.074;2023-06-05T02:36:59;9.60;99.90
2465;DHT22;1244;54.326;10.074;2023-06-05T02:39:24;9.50;99.90
2465;DHT22;1244;54.326;10.074;2023-06-05T02:41:51;9.60;99.90
2465;DHT22;1244;54.326;10.074;2023-06-05T02:44:16;9.50;99.90
2465;DHT22;1244;54.326;10.074;2023-06-05T02:46:42;9.40;99.90
2465;DHT22;1244;54.326;10.074;2023-06-05T02:49:07;9.40;99.90
2465;DHT22;1244;54.326;10.074;2023-06-05T02:51:33;9.40;99.90
2465;DHT22;1244;54.326;10.074;2023-06-05T02:53:59;9.40;99.90
2465;DHT22;1244;54.326;10.074;2023-06-05T02:56:24;9.30;99.90
2465;DHT22;1244;54.326;10.074;2023-06-05T02:58:52;9.30;99.90
2465;DHT22;1244;54.326;10.074;2023-06-05T03:01:18;9.30;99.90
2465;DHT22;1244;54.326;10.074;2023-06-05T03:03:44;9.30;99.90
2465;DHT22;1244;54.326;10.074;2023-06-05T03:06:10;9.30;99.90
2465;DHT22;1244;54.326;10.074;2023-06-05T03:08:37;9.30;99.90
2465;DHT22;1244;54.326;10.074;2023-06-05T03:11:04;9.30;99.90
2465;DHT22;1244;54.326;10.074;2023-06-05T03:13:30;9.30;99.90
2465;DHT22;1244;54.326;10.074;2023-06-05T03:15:56;9.30;99.90
2465;DHT22;1244;54.326;10.074;2023-06-05T03:18:26;9.40;99.90
2465;DHT22;1244;54.326;10.074;2023-06-05T03:20:52;9.30;99.90
2465;DHT22;1244;54.326;10.074;2023-06-05T03:23:28;9.30;99.90
2465;DHT22;1244;54.326;10.074;2023-06-05T03:25:56;9.30;99.90
2465;DHT22;1244;54.326;10.074;2023-06-05T03:28:23;9.30;99.90
2465;DHT22;1244;54.326;10.074;2023-06-05T03:30:49;9.40;99.90
2465;DHT22;1244;54.326;10.074;2023-06-05T03:33:15;9.40;99.90
2465;DHT22;1244;54.326;10.074;2023-06-05T03:35:42;9.40;99.90
2465;DHT22;1244;54.326;10.074;2023-06-05T03:38:08;9.40;99.90
2465;DHT22;1244;54.326;10.074;2023-06-05T03:40:34;9.30;99.90
2465;DHT22;1244;54.326;10.074;2023-06-05T03:43:00;9.40;99.90
2465;DHT22;1244;54.326;10.074;2023-06-05T03:45:25;9.40;99.90
2465;DHT22;1244;54.326;10.074;2023-06-05T03:47:54;9.30;99.90
2465;DHT22;1244;54.326;10.074;2023-06-05T03:50:21;9.40;99.90
2465;DHT22;1244;54.326;10.074;2023-06-05T03:52:49;9.40;99.90
2465;DHT22;1244;54.326;10.074;2023-06-05T03:55:20;9.40;99.90
2465;DHT22;1244;54.326;10.074;2023-06-05T03:57:47;9.40;99.90
2465;DHT22;1244;54.326;10.074;2023-06-05T04:00:13;9.50;99.90
2465;DHT22;1244;54.326;10.074;2023-06-05T04:02:42;9.50;99.90
2465;DHT22;1244;54.326;10.074;2023-06-05T04:05:08;9.50;99.90
2465;DHT22;1244;54.326;10.074;2023-06-05T04:07:37;9.60;99.90
2465;DHT22;1244;54.326;10.074;2023-06-05T04:10:03;9.60;99.90
2465;DHT22;1244;54.326;10.074;2023-06-05T04:12:28;9.60;99.90
2465;DHT22;1244;54.326;10.074;2023-06-05T04:14:54;9.70;99.90
2465;DHT22;1244;54.326;10.074;2023-06-05T04:17:19;9.70;99.90
2465;DHT22;1244;54.326;10.074;2023-06-05T04:19:45;9.70;99.90
2465;DHT22;1244;54.326;10.074;2023-06-05T04:22:10;9.70;99.90
2465;DHT22;1244;54.326;10.074;2023-06-05T04:24:36;9.70;99.90
2465;DHT22;1244;54.326;10.074;2023-06-05T04:27:04;9.70;99.90
2465;DHT22;1244;54.326;10.074;2023-06-05T04:29:29;9.70;99.90
2465;DHT22;1244;54.326;10.074;2023-06-05T04:31:57;9.80;99.90
2465;DHT22;1244;54.326;10.074;2023-06-05T04:34:23;9.80;99.90
2465;DHT22;1244;54.326;10.074;2023-06-05T04:36:49;9.90;99.90
2465;DHT22;1244;54.326;10.074;2023-06-05T04:39:15;9.90;99.90
2465;DHT22;1244;54.326;10.074;2023-06-05T04:41:45;9.90;99.90
2465;DHT22;1244;54.326;10.074;2023-06-05T04:44:15;10.00;99.90
2465;DHT22;1244;54.326;10.074;2023-06-05T04:46:44;10.00;99.90
2465;DHT22;1244;54.326;10.074;2023-06-05T04:49:14;10.00;99.90
2465;DHT22;1244;54.326;10.074;2023-06-05T04:51:40;10.10;99.90
2465;DHT22;1244;54.326;10.074;2023-06-05T04:54:06;10.10;99.90
2465;DHT22;1244;54.326;10.074;2023-06-05T04:56:32;10.10;99.90
2465;DHT22;1244;54.326;10.074;2023-06-05T04:59:00;10.30;99.90
2465;DHT22;1244;54.326;10.074;2023-06-05T05:01:27;10.30;99.90
2465;DHT22;1244;54.326;10.074;2023-06-05T05:03:53;10.40;99.90
2465;DHT22;1244;54.326;10.074;2023-06-05T05:06:20;10.40;99.90
2465;DHT22;1244;54.326;10.074;2023-06-05T05:08:46;10.50;99.90
2465;DHT22;1244;54.326;10.074;2023-06-05T05:11:15;10.60;99.90
2465;DHT22;1244;54.326;10.074;2023-06-05T05:13:41;10.70;99.90
2465;DHT22;1244;54.326;10.074;2023-06-05T05:16:07;10.80;99.90
2465;DHT22;1244;54.326;10.074;2023-06-05T05:18:34;10.90;99.90
2465;DHT22;1244;54.326;10.074;2023-06-05T05:21:00;11.00;99.90
2465;DHT22;1244;54.326;10.074;2023-06-05T05:23:27;11.10;99.90
2465;DHT22;1244;54.326;10.074;2023-06-05T05:25:53;11.20;99.90
2465;DHT22;1244;54.326;10.074;2023-06-05T05:28:18;11.40;99.90
2465;DHT22;1244;54.326;10.074;2023-06-05T05:30:44;11.40;99.90
2465;DHT22;1244;54.326;10.074;2023-06-05T05:33:09;11.50;99.90
2465;DHT22;1244;54.326;10.074;2023-06-05T05:35:35;11.50;99.90
2465;DHT22;1244;54.326;10.074;2023-06-05T05:38:00;11.60;99.90
2465;DHT22;1244;54.326;10.074;2023-06-05T05:40:26;11.70;99.90
2465;DHT22;1244;54.326;10.074;2023-06-05T05:42:52;11.40;99.90
2465;DHT22;1244;54.326;10.074;2023-06-05T05:45:17;11.60;99.90
2465;DHT22;1244;54.326;10.074;2023-06-05T05:47:43;11.60;99.90
2465;DHT22;1244;54.326;10.074;2023-06-05T05:50:08;11.40;99.90
2465;DHT22;1244;54.326;10.074;2023-06-05T05:52:34;11.60;99.90
2465;DHT22;1244;54.326;10.074;2023-06-05T05:54:59;11.90;99.90
2465;DHT22;1244;54.326;10.074;2023-06-05T05:57:25;12.10;99.90
2465;DHT22;1244;54.326;10.074;2023-06-05T05:59:53;12.10;99.90
2465;DHT22;1244;54.326;10.074;2023-06-05T06:02:18;12.10;99.90
2465;DHT22;1244;54.326;10.074;2023-06-05T06:04:44;12.20;99.90
2465;DHT22;1244;54.326;10.074;2023-06-05T06:07:10;12.30;99.90
2465;DHT22;1244;54.326;10.074;2023-06-05T06:09:35;12.40;99.90
2465;DHT22;1244;54.326;10.074;2023-06-05T06:12:01;12.60;99.90
2465;DHT22;1244;54.326;10.074;2023-06-05T06:14:34;12.80;99.90
2465;DHT22;1244;54.326;10.074;2023-06-05T06:17:00;12.80;99.90
2465;DHT22;1244;54.326;10.074;2023-06-05T06:19:26;13.00;99.90
2465;DHT22;1244;54.326;10.074;2023-06-05T06:21:53;13.20;99.90
2465;DHT22;1244;54.326;10.074;2023-06-05T06:24:19;13.30;99.90
2465;DHT22;1244;54.326;10.074;2023-06-05T06:26:49;13.30;99.90
2465;DHT22;1244;54.326;10.074;2023-06-05T06:29:20;13.30;99.90
2465;DHT22;1244;54.326;10.074;2023-06-05T06:31:48;13.30;99.90
2465;DHT22;1244;54.326;10.074;2023-06-05T06:34:14;13.20;99.90
2465;DHT22;1244;54.326;10.074;2023-06-05T06:36:40;13.30;99.90
2465;DHT22;1244;54.326;10.074;2023-06-05T06:39:08;13.60;99.90
2465;DHT22;1244;54.326;10.074;2023-06-05T06:41:34;13.80;99.90
2465;DHT22;1244;54.326;10.074;2023-06-05T06:44:01;13.90;99.90
2465;DHT22;1244;54.326;10.074;2023-06-05T06:46:26;14.00;99.90
2465;DHT22;1244;54.326;10.074;2023-06-05T06:48:53;14.10;99.90
2465;DHT22;1244;54.326;10.074;2023-06-05T06:51:18;14.30;99.90
2465;DHT22;1244;54.326;10.074;2023-06-05T06:53:44;14.30;99.90
2465;DHT22;1244;54.326;10.074;2023-06-05T06:56:09;14.40;99.90
2465;DHT22;1244;54.326;10.074;2023-06-05T06:58:36;14.30;99.90
2465;DHT22;1244;54.326;10.074;2023-06-05T07:01:02;14.40;99.90
2465;DHT22;1244;54.326;10.074;2023-06-05T07:03:28;14.50;99.90
2465;DHT22;1244;54.326;10.074;2023-06-05T07:05:54;14.60;99.90
2465;DHT22;1244;54.326;10.074;2023-06-05T07:08:19;14.80;99.90
2465;DHT22;1244;54.326;10.074;2023-06-05T07:10:45;15.00;99.90
2465;DHT22;1244;54.326;10.074;2023-06-05T07:13:11;15.10;99.90
2465;DHT22;1244;54.326;10.074;2023-06-05T07:15:37;15.10;99.90
2465;DHT22;1244;54.326;10.074;2023-06-05T07:18:02;14.80;99.90
2465;DHT22;1244;54.326;10.074;2023-06-05T07:20:28;15.00;99.90
2465;DHT22;1244;54.326;10.074;2023-06-05T07:22:53;15.10;99.90
2465;DHT22;1244;54.326;10.074;2023-06-05T07:25:19;15.40;99.90
2465;DHT22;1244;54.326;10.074;2023-06-05T07:27:46;15.50;99.90
2465;DHT22;1244;54.326;10.074;2023-06-05T07:30:12;15.60;99.90
2465;DHT22;1244;54.326;10.074;2023-06-05T07:32:41;15.40;99.90
2465;DHT22;1244;54.326;10.074;2023-06-05T07:35:08;15.60;99.90
2465;DHT22;1244;54.326;10.074;2023-06-05T07:37:35;15.70;99.90
2465;DHT22;1244;54.326;10.074;2023-06-05T07:40:00;15.50;99.90
2465;DHT22;1244;54.326;10.074;2023-06-05T07:42:26;15.80;99.90
2465;DHT22;1244;54.326;10.074;2023-06-05T07:44:51;15.90;99.90
2465;DHT22;1244;54.326;10.074;2023-06-05T07:47:17;16.00;99.90
2465;DHT22;1244;54.326;10.074;2023-06-05T07:49:42;16.10;99.90
2465;DHT22;1244;54.326;10.074;2023-06-05T07:52:08;16.30;99.90
2465;DHT22;1244;54.326;10.074;2023-06-05T07:54:33;16.50;99.90
2465;DHT22;1244;54.326;10.074;2023-06-05T07:56:59;16.70;99.90
2465;DHT22;1244;54.326;10.074;2023-06-05T07:59:24;16.60;99.90
2465;DHT22;1244;54.326;10.074;2023-06-05T08:01:53;16.60;99.90
2465;DHT22;1244;54.326;10.074;2023-06-05T08:04:20;17.00;99.90
2465;DHT22;1244;54.326;10.074;2023-06-05T08:06:50;17.20;99.90
2465;DHT22;1244;54.326;10.074;2023-06-05T08:09:17;17.00;99.90
2465;DHT22;1244;54.326;10.074;2023-06-05T08:11:43;17.10;99.90
2465;DHT22;1244;54.326;10.074;2023-06-05T08:14:09;17.10;99.90
2465;DHT22;1244;54.326;10.074;2023-06-05T08:16:35;17.30;99.90
2465;DHT22;1244;54.326;10.074;2023-06-05T08:19:01;17.60;99.90
2465;DHT22;1244;54.326;10.074;2023-06-05T08:21:27;17.60;99.90
2465;DHT22;1244;54.326;10.074;2023-06-05T08:23:57;17.70;99.90
2465;DHT22;1244;54.326;10.074;2023-06-05T08:26:22;17.60;99.90
2465;DHT22;1244;54.326;10.074;2023-06-05T08:28:49;17.70;99.90
2465;DHT22;1244;54.326;10.074;2023-06-05T08:31:15;17.90;99.90
2465;DHT22;1244;54.326;10.074;2023-06-05T08:33:41;17.80;99.90
2465;DHT22;1244;54.326;10.074;2023-06-05T08:36:07;18.10;99.90
2465;DHT22;1244;54.326;10.074;2023-06-05T08:38:33;18.40;99.90
2465;DHT22;1244;54.326;10.074;2023-06-05T08:41:04;18.60;99.90
2465;DHT22;1244;54.326;10.074;2023-06-05T08:43:39;18.60;99.90
2465;DHT22;1244;54.326;10.074;2023-06-05T08:46:07;18.70;99.90
2465;DHT22;1244;54.326;10.074;2023-06-05T08:48:44;18.90;99.90
2465;DHT22;1244;54.326;10.074;2023-06-05T08:51:11;19.00;99.90
2465;DHT22;1244;54.326;10.074;2023-06-05T08:53:39;18.90;99.90
2465;DHT22;1244;54.326;10.074;2023-06-05T08:56:06;19.10;99.90
2465;DHT22;1244;54.326;10.074;2023-06-05T08:58:32;19.10;99.90
2465;DHT22;1244;54.326;10.074;2023-06-05T09:00:59;19.20;99.90
2465;DHT22;1244;54.326;10.074;2023-06-05T09:03:24;19.30;99.90
2465;DHT22;1244;54.326;10.074;2023-06-05T09:05:52;19.60;99.90
2465;DHT22;1244;54.326;10.074;2023-06-05T09:08:19;19.90;99.90
2465;DHT22;1244;54.326;10.074;2023-06-05T09:10:53;20.00;99.90
2465;DHT22;1244;54.326;10.074;2023-06-05T09:13:19;19.80;99.90
2465;DHT22;1244;54.326;10.074;2023-06-05T09:15:50;20.00;99.90
2465;DHT22;1244;54.326;10.074;2023-06-05T09:18:15;20.20;99.90
2465;DHT22;1244;54.326;10.074;2023-06-05T09:20:43;20.00;99.90
2465;DHT22;1244;54.326;10.074;2023-06-05T09:23:27;20.40;99.90
2465;DHT22;1244;54.326;10.074;2023-06-05T09:25:56;20.50;99.90
2465;DHT22;1244;54.326;10.074;2023-06-05T09:28:22;20.60;99.90
2465;DHT22;1244;54.326;10.074;2023-06-05T09:31:01;21.00;99.90
2465;DHT22;1244;54.326;10.074;2023-06-05T09:33:29;21.20;99.90
2465;DHT22;1244;54.326;10.074;2023-06-05T09:36:09;21.20;99.90
2465;DHT22;1244;54.326;10.074;2023-06-05T09:38:40;21.50;99.90
2465;DHT22;1244;54.326;10.074;2023-06-05T09:41:07;21.70;99.90
2465;DHT22;1244;54.326;10.074;2023-06-05T09:43:33;21.80;99.90
2465;DHT22;1244;54.326;10.074;2023-06-05T09:46:12;21.60;99.90
2465;DHT22;1244;54.326;10.074;2023-06-05T09:48:42;21.30;99.90
2465;DHT22;1244;54.326;10.074;2023-06-05T09:51:11;21.60;99.90
2465;DHT22;1244;54.326;10.074;2023-06-05T09:53:48;21.60;99.90
2465;DHT22;1244;54.326;10.074;2023-06-05T09:56:15;21.60;99.90
2465;DHT22;1244;54.326;10.074;2023-06-05T09:58:46;21.80;99.90
2465;DHT22;1244;54.326;10.074;2023-06-05T10:01:21;21.80;99.90
2465;DHT22;1244;54.326;10.074;2023-06-05T10:03:56;22.00;99.90
2465;DHT22;1244;54.326;10.074;2023-06-05T10:06:24;21.60;99.90
2465;DHT22;1244;54.326;10.074;2023-06-05T10:08:50;21.50;99.90
2465;DHT22;1244;54.326;10.074;2023-06-05T10:11:19;21.40;99.90
2465;DHT22;1244;54.326;10.074;2023-06-05T10:13:47;21.80;99.90
2465;DHT22;1244;54.326;10.074;2023-06-05T10:16:14;22.50;99.90
2465;DHT22;1244;54.326;10.074;2023-06-05T10:18:40;22.40;99.90
2465;DHT22;1244;54.326;10.074;2023-06-05T10:21:06;22.60;99.90
2465;DHT22;1244;54.326;10.074;2023-06-05T10:23:32;22.20;99.90
2465;DHT22;1244;54.326;10.074;2023-06-05T10:26:00;22.30;99.90
2465;DHT22;1244;54.326;10.074;2023-06-05T10:39:34;24.10;99.90
2465;DHT22;1244;54.326;10.074;2023-06-05T10:42:02;23.90;99.90
2465;DHT22;1244;54.326;10.074;2023-06-05T10:44:39;24.50;99.90
2465;DHT22;1244;54.326;10.074;2023-06-05T10:52:45;24.30;99.90
2465;DHT22;1244;54.326;10.074;2023-06-05T10:55:12;24.50;99.90
2465;DHT22;1244;54.326;10.074;2023-06-05T10:58:05;24.70;99.90
2465;DHT22;1244;54.326;10.074;2023-06-05T11:00:33;25.20;99.90
2465;DHT22;1244;54.326;10.074;2023-06-05T11:03:00;25.10;99.60
2465;DHT22;1244;54.326;10.074;2023-06-05T11:05:26;25.00;99.70
2465;DHT22;1244;54.326;10.074;2023-06-05T11:08:12;25.20;99.90
2465;DHT22;1244;54.326;10.074;2023-06-05T11:11:05;25.90;99.80
2465;DHT22;1244;54.326;10.074;2023-06-05T11:13:56;25.60;98.30
2465;DHT22;1244;54.326;10.074;2023-06-05T11:16:40;25.30;99.70
2465;DHT22;1244;54.326;10.074;2023-06-05T11:19:35;25.90;97.80
2465;DHT22;1244;54.326;10.074;2023-06-05T11:22:05;25.40;96.80
2465;DHT22;1244;54.326;10.074;2023-06-05T11:24:33;25.40;98.20
2465;DHT22;1244;54.326;10.074;2023-06-05T11:27:01;26.20;98.20
2465;DHT22;1244;54.326;10.074;2023-06-05T11:29:27;26.60;94.90
2465;DHT22;1244;54.326;10.074;2023-06-05T11:31:53;27.70;93.20
2465;DHT22;1244;54.326;10.074;2023-06-05T11:34:19;26.80;93.10
2465;DHT22;1244;54.326;10.074;2023-06-05T11:36:45;26.80;94.40
2465;DHT22;1244;54.326;10.074;2023-06-05T11:39:11;26.30;96.00
2465;DHT22;1244;54.326;10.074;2023-06-05T11:41:49;26.40;96.60
2465;DHT22;1244;54.326;10.074;2023-06-05T11:44:30;27.60;97.00
2465;DHT22;1244;54.326;10.074;2023-06-05T11:46:57;27.70;96.70
2465;DHT22;1244;54.326;10.074;2023-06-05T11:49:24;27.80;96.10
2465;DHT22;1244;54.326;10.074;2023-06-05T11:51:51;27.80;96.60
2465;DHT22;1244;54.326;10.074;2023-06-05T11:54:30;26.70;96.00
2465;DHT22;1244;54.326;10.074;2023-06-05T11:57:00;27.00;94.90
2465;DHT22;1244;54.326;10.074;2023-06-05T11:59:33;26.70;96.70
2465;DHT22;1244;54.326;10.074;2023-06-05T12:02:00;26.50;96.60
2465;DHT22;1244;54.326;10.074;2023-06-05T12:04:28;25.60;95.50
2465;DHT22;1244;54.326;10.074;2023-06-05T12:06:53;26.50;96.70
2465;DHT22;1244;54.326;10.074;2023-06-05T12:09:20;27.20;95.00
2465;DHT22;1244;54.326;10.074;2023-06-05T12:11:47;27.20;97.30
2465;DHT22;1244;54.326;10.074;2023-06-05T12:14:28;26.50;93.80
2465;DHT22;1244;54.326;10.074;2023-06-05T12:16:54;25.40;94.30
2465;DHT22;1244;54.326;10.074;2023-06-05T12:19:20;25.10;96.70
2465;DHT22;1244;54.326;10.074;2023-06-05T12:21:47;25.80;99.70
2465;DHT22;1244;54.326;10.074;2023-06-05T12:24:13;26.10;99.90
2465;DHT22;1244;54.326;10.074;2023-06-05T12:29:17;26.50;99.90
2465;DHT22;1244;54.326;10.074;2023-06-05T12:31:43;26.30;99.00
2465;DHT22;1244;54.326;10.074;2023-06-05T12:34:08;26.20;99.90
2465;DHT22;1244;54.326;10.074;2023-06-05T12:36:40;26.20;99.70
2465;DHT22;1244;54.326;10.074;2023-06-05T12:39:09;25.70;99.70
2465;DHT22;1244;54.326;10.074;2023-06-05T12:41:35;25.30;98.60
2465;DHT22;1244;54.326;10.074;2023-06-05T12:44:05;24.90;99.90
2465;DHT22;1244;54.326;10.074;2023-06-05T12:46:31;24.00;99.90
2465;DHT22;1244;54.326;10.074;2023-06-05T12:49:01;24.20;99.90
2465;DHT22;1244;54.326;10.074;2023-06-05T12:51:28;23.90;99.90
2465;DHT22;1244;54.326;10.074;2023-06-05T12:53:54;24.00;99.90
2465;DHT22;1244;54.326;10.074;2023-06-05T12:56:21;23.50;99.90
2465;DHT22;1244;54.326;10.074;2023-06-05T12:58:51;23.50;99.90
2465;DHT22;1244;54.326;10.074;2023-06-05T13:01:17;23.80;99.90
2465;DHT22;1244;54.326;10.074;2023-06-05T13:03:42;23.90;99.90
2465;DHT22;1244;54.326;10.074;2023-06-05T13:06:08;23.00;99.90
2465;DHT22;1244;54.326;10.074;2023-06-05T13:08:34;22.80;99.90
2465;DHT22;1244;54.326;10.074;2023-06-05T13:10:59;22.40;99.90
2465;DHT22;1244;54.326;10.074;2023-06-05T13:13:25;22.40;99.90
2465;DHT22;1244;54.326;10.074;2023-06-05T13:15:50;22.10;99.90
2465;DHT22;1244;54.326;10.074;2023-06-05T13:18:16;22.30;99.90
2465;DHT22;1244;54.326;10.074;2023-06-05T13:20:41;23.00;99.90
2465;DHT22;1244;54.326;10.074;2023-06-05T13:23:07;23.50;99.90
2465;DHT22;1244;54.326;10.074;2023-06-05T13:25:33;23.60;99.90
2465;DHT22;1244;54.326;10.074;2023-06-05T13:27:58;23.90;99.90
2465;DHT22;1244;54.326;10.074;2023-06-05T13:30:24;24.40;99.90
2465;DHT22;1244;54.326;10.074;2023-06-05T13:32:50;23.60;99.90
2465;DHT22;1244;54.326;10.074;2023-06-05T13:35:15;23.70;99.90
2465;DHT22;1244;54.326;10.074;2023-06-05T13:37:41;23.30;99.90
2465;DHT22;1244;54.326;10.074;2023-06-05T13:40:07;22.90;99.90
2465;DHT22;1244;54.326;10.074;2023-06-05T13:42:36;23.30;99.90
2465;DHT22;1244;54.326;10.074;2023-06-05T13:45:02;23.50;99.90
2465;DHT22;1244;54.326;10.074;2023-06-05T13:47:27;23.20;99.90
2465;DHT22;1244;54.326;10.074;2023-06-05T13:49:53;23.30;99.90
2465;DHT22;1244;54.326;10.074;2023-06-05T13:52:19;23.50;99.90
2465;DHT22;1244;54.326;10.074;2023-06-05T13:54:45;23.40;99.90
2465;DHT22;1244;54.326;10.074;2023-06-05T13:57:10;23.50;99.90
2465;DHT22;1244;54.326;10.074;2023-06-05T13:59:37;23.80;99.90
2465;DHT22;1244;54.326;10.074;2023-06-05T14:02:03;23.90;99.90
2465;DHT22;1244;54.326;10.074;2023-06-05T14:04:29;23.90;99.90
2465;DHT22;1244;54.326;10.074;2023-06-05T14:06:54;23.70;99.90
2465;DHT22;1244;54.326;10.074;2023-06-05T14:09:20;23.90;99.90
2465;DHT22;1244;54.326;10.074;2023-06-05T14:11:46;23.40;99.90
2465;DHT22;1244;54.326;10.074;2023-06-05T14:14:12;23.00;99.90
2465;DHT22;1244;54.326;10.074;2023-06-05T14:16:37;23.20;99.90
2465;DHT22;1244;54.326;10.074;2023-06-05T14:19:03;23.50;99.90
2465;DHT22;1244;54.326;10.074;2023-06-05T14:21:28;23.20;99.90
2465;DHT22;1244;54.326;10.074;2023-06-05T14:23:54;23.10;99.90
2465;DHT22;1244;54.326;10.074;2023-06-05T14:26:19;22.90;99.90
2465;DHT22;1244;54.326;10.074;2023-06-05T14:28:47;22.70;99.90
2465;DHT22;1244;54.326;10.074;2023-06-05T14:31:12;22.50;99.90
2465;DHT22;1244;54.326;10.074;2023-06-05T14:33:38;22.50;99.90
2465;DHT22;1244;54.326;10.074;2023-06-05T14:36:04;22.30;99.90
2465;DHT22;1244;54.326;10.074;2023-06-05T14:38:30;22.10;99.90
2465;DHT22;1244;54.326;10.074;2023-06-05T14:40:56;22.00;99.90
2465;DHT22;1244;54.326;10.074;2023-06-05T14:43:23;22.10;99.90
2465;DHT22;1244;54.326;10.074;2023-06-05T14:45:48;22.50;99.90
2465;DHT22;1244;54.326;10.074;2023-06-05T14:48:14;22.50;99.90
2465;DHT22;1244;54.326;10.074;2023-06-05T14:50:39;22.60;99.90
2465;DHT22;1244;54.326;10.074;2023-06-05T14:53:05;22.50;99.90
2465;DHT22;1244;54.326;10.074;2023-06-05T14:55:31;22.40;99.90
2465;DHT22;1244;54.326;10.074;2023-06-05T14:57:56;22.30;99.90
2465;DHT22;1244;54.326;10.074;2023-06-05T15:00:22;22.30;99.90
2465;DHT22;1244;54.326;10.074;2023-06-05T15:02:47;22.50;99.90
2465;DHT22;1244;54.326;10.074;2023-06-05T15:05:13;22.70;99.90
2465;DHT22;1244;54.326;10.074;2023-06-05T15:07:41;22.80;99.90
2465;DHT22;1244;54.326;10.074;2023-06-05T15:10:08;22.70;99.90
2465;DHT22;1244;54.326;10.074;2023-06-05T15:12:34;22.70;99.90
2465;DHT22;1244;54.326;10.074;2023-06-05T15:15:00;22.50;99.90
2465;DHT22;1244;54.326;10.074;2023-06-05T15:17:25;22.10;99.90
2465;DHT22;1244;54.326;10.074;2023-06-05T15:19:51;22.10;99.90
2465;DHT22;1244;54.326;10.074;2023-06-05T15:22:16;22.10;99.90
2465;DHT22;1244;54.326;10.074;2023-06-05T15:24:42;22.10;99.90
2465;DHT22;1244;54.326;10.074;2023-06-05T15:27:07;22.30;99.90
2465;DHT22;1244;54.326;10.074;2023-06-05T15:29:36;22.30;99.90
2465;DHT22;1244;54.326;10.074;2023-06-05T15:32:01;22.20;99.90
2465;DHT22;1244;54.326;10.074;2023-06-05T15:34:27;22.10;99.90
2465;DHT22;1244;54.326;10.074;2023-06-05T15:36:52;21.80;99.90
2465;DHT22;1244;54.326;10.074;2023-06-05T15:39:18;21.80;99.90
2465;DHT22;1244;54.326;10.074;2023-06-05T15:41:43;21.90;99.90
2465;DHT22;1244;54.326;10.074;2023-06-05T15:44:09;21.60;99.90
2465;DHT22;1244;54.326;10.074;2023-06-05T15:46:35;21.70;99.90
2465;DHT22;1244;54.326;10.074;2023-06-05T15:49:01;21.60;99.90
2465;DHT22;1244;54.326;10.074;2023-06-05T15:51:26;21.50;99.90
2465;DHT22;1244;54.326;10.074;2023-06-05T15:53:56;21.40;99.90
2465;DHT22;1244;54.326;10.074;2023-06-05T15:56:23;21.20;99.90
2465;DHT22;1244;54.326;10.074;2023-06-05T15:58:49;21.30;99.90
2465;DHT22;1244;54.326;10.074;2023-06-05T16:01:15;21.30;99.90
2465;DHT22;1244;54.326;10.074;2023-06-05T16:03:41;21.40;99.90
2465;DHT22;1244;54.326;10.074;2023-06-05T16:06:06;21.40;99.90
2465;DHT22;1244;54.326;10.074;2023-06-05T16:08:33;21.30;99.90
2465;DHT22;1244;54.326;10.074;2023-06-05T16:10:59;21.10;99.90